Ana Sayfa
METAR-TAF:

METAR-TAF

Havaalanları :

N'Djamena, Çad

Enlem: 12-08N, Boylam: 015-02E, yükseklik: 295 m

Güncel hava durumu gözlemi

Rapor saat 21:00 UTC de 1 saat ve 24 dakika önce yapıldı.
Rüzgar kuzeydan 10 kt
Sıcaklık 24°C
Nem 12%
Basınç 1014 hPa
Görüş mesafesi: 2500 m
yaygın toz

METAR: FTTJ 252100Z 35010KT 2500 DU NSC 24/M07 Q1014 NOSIG

Saat: 23:24 (22:24 UTC)

Tahmin

Rapor saat 17:00 UTC de 5 saat ve 24 dakika önce yapıldı.
Ayın 25'si saat 18 UTC'den ayın 26'si saat 24 UTC'ye kadar geçerli Tahmin
Rüzgar kuzeydan 10 kt
Görüş mesafesi: 2500 m
yaygın toz
Geçici
ayın 25'si saat 20 UTC'den ayın 26'si saat 03 UTC'ye kadar
Görüş mesafesi: 1400 m
Dönüşüyor
ayın 26'si saat 06 UTC'den ayın 26'si saat 08 UTC'ye kadar
Rüzgar doğu/kuzeydoğudan 12 kt
Görüş mesafesi: 6000 m

TAF: FTTJ 251700Z 2518/2624 36010KT 2500 DU NSC TEMPO 2520/2603 1400 BECMG 2606/2608 06012KT 6000 NSC

4.000'den fazla havaalanı için hava durumu gözlemleri ve tahminleri (METAR ve TAF raporları).

Kullanılabilir istasyonlar harita üzerinde sarı ve kırmızı noktalarla gösterilir.

İstasyonun adını görmek için fareyi noktanın üzerinde gezdirin.

Sonrasında hava gözlem ve tahminlerini görmek için tıklayın.

Haritayı değiştirmek için: yaklaştırmak için siyah artı işaretli yeşil düğmeye ve uzaklaştırmak için de eksi işaretli düğmeye hızla tıklayın; bitişik haritalar için yeşil okları kullanın.


METAR-TAF: